sensor_id;sensor_type;location;lat;lon;timestamp;temperature;humidity
78455;SHT31;67751;51.986;5.696;2023-04-03T00:01:48;6.9;60.1
78455;SHT31;67751;51.986;5.696;2023-04-03T00:04:18;6.9;59.5
78455;SHT31;67751;51.986;5.696;2023-04-03T00:06:47;6.9;59.8
78455;SHT31;67751;51.986;5.696;2023-04-03T00:09:17;6.9;59.6
78455;SHT31;67751;51.986;5.696;2023-04-03T00:11:49;6.8;59.5
78455;SHT31;67751;51.986;5.696;2023-04-03T00:14:20;6.8;59.9
78455;SHT31;67751;51.986;5.696;2023-04-03T00:16:50;6.8;59.8
78455;SHT31;67751;51.986;5.696;2023-04-03T00:19:19;6.8;59.5
78455;SHT31;67751;51.986;5.696;2023-04-03T00:21:49;6.7;59.8
78455;SHT31;67751;51.986;5.696;2023-04-03T00:24:22;6.7;59.6
78455;SHT31;67751;51.986;5.696;2023-04-03T00:26:52;6.7;59.8
78455;SHT31;67751;51.986;5.696;2023-04-03T00:29:22;6.7;59.8
78455;SHT31;67751;51.986;5.696;2023-04-03T00:31:51;6.7;59.0
78455;SHT31;67751;51.986;5.696;2023-04-03T00:34:21;6.7;60.1
78455;SHT31;67751;51.986;5.696;2023-04-03T00:36:51;6.7;58.5
78455;SHT31;67751;51.986;5.696;2023-04-03T00:39:20;6.6;59.5
78455;SHT31;67751;51.986;5.696;2023-04-03T00:41:50;6.6;59.9
78455;SHT31;67751;51.986;5.696;2023-04-03T00:44:22;6.6;59.6
78455;SHT31;67751;51.986;5.696;2023-04-03T00:46:54;6.6;60.2
78455;SHT31;67751;51.986;5.696;2023-04-03T00:49:24;6.6;60.4
78455;SHT31;67751;51.986;5.696;2023-04-03T00:51:54;6.5;60.5
78455;SHT31;67751;51.986;5.696;2023-04-03T00:54:25;6.5;60.7
78455;SHT31;67751;51.986;5.696;2023-04-03T00:56:57;6.5;60.4
78455;SHT31;67751;51.986;5.696;2023-04-03T00:59:32;6.5;60.1
78455;SHT31;67751;51.986;5.696;2023-04-03T01:02:03;6.5;60.3
78455;SHT31;67751;51.986;5.696;2023-04-03T01:04:35;6.5;60.1
78455;SHT31;67751;51.986;5.696;2023-04-03T01:07:08;6.5;60.3
78455;SHT31;67751;51.986;5.696;2023-04-03T01:09:39;6.5;60.1
78455;SHT31;67751;51.986;5.696;2023-04-03T01:12:17;6.5;60.8
78455;SHT31;67751;51.986;5.696;2023-04-03T01:14:49;6.5;59.5
78455;SHT31;67751;51.986;5.696;2023-04-03T01:17:30;6.5;60.2
78455;SHT31;67751;51.986;5.696;2023-04-03T01:24:24;6.4;60.3
78455;SHT31;67751;51.986;5.696;2023-04-03T01:26:55;6.4;60.5
78455;SHT31;67751;51.986;5.696;2023-04-03T01:29:25;6.4;60.8
78455;SHT31;67751;51.986;5.696;2023-04-03T01:31:57;6.4;60.5
78455;SHT31;67751;51.986;5.696;2023-04-03T01:34:29;6.4;60.4
78455;SHT31;67751;51.986;5.696;2023-04-03T01:37:01;6.4;60.6
78455;SHT31;67751;51.986;5.696;2023-04-03T01:39:30;6.4;60.2
78455;SHT31;67751;51.986;5.696;2023-04-03T01:42:00;6.4;60.0
78455;SHT31;67751;51.986;5.696;2023-04-03T01:44:31;6.4;60.0
78455;SHT31;67751;51.986;5.696;2023-04-03T01:47:00;6.4;59.4
78455;SHT31;67751;51.986;5.696;2023-04-03T01:49:30;6.3;60.1
78455;SHT31;67751;51.986;5.696;2023-04-03T01:51:59;6.3;60.3
78455;SHT31;67751;51.986;5.696;2023-04-03T01:54:29;6.3;60.7
78455;SHT31;67751;51.986;5.696;2023-04-03T01:56:58;6.3;60.2
78455;SHT31;67751;51.986;5.696;2023-04-03T01:59:28;6.3;60.7
78455;SHT31;67751;51.986;5.696;2023-04-03T02:01:57;6.2;61.3
78455;SHT31;67751;51.986;5.696;2023-04-03T02:04:27;6.2;61.4
78455;SHT31;67751;51.986;5.696;2023-04-03T02:06:57;6.2;60.7
78455;SHT31;67751;51.986;5.696;2023-04-03T02:09:27;6.2;61.0
78455;SHT31;67751;51.986;5.696;2023-04-03T02:11:57;6.2;61.1
78455;SHT31;67751;51.986;5.696;2023-04-03T02:14:27;6.2;61.2
78455;SHT31;67751;51.986;5.696;2023-04-03T02:16:57;6.2;61.2
78455;SHT31;67751;51.986;5.696;2023-04-03T02:19:26;6.2;60.7
78455;SHT31;67751;51.986;5.696;2023-04-03T02:21:56;6.2;60.6
78455;SHT31;67751;51.986;5.696;2023-04-03T02:24:25;6.2;60.7
78455;SHT31;67751;51.986;5.696;2023-04-03T02:26:55;6.2;60.7
78455;SHT31;67751;51.986;5.696;2023-04-03T02:29:25;6.2;60.4
78455;SHT31;67751;51.986;5.696;2023-04-03T02:31:57;6.2;60.7
78455;SHT31;67751;51.986;5.696;2023-04-03T02:34:26;6.2;61.2
78455;SHT31;67751;51.986;5.696;2023-04-03T02:36:56;6.2;61.0
78455;SHT31;67751;51.986;5.696;2023-04-03T02:39:26;6.2;61.3
78455;SHT31;67751;51.986;5.696;2023-04-03T02:41:55;6.2;60.9
78455;SHT31;67751;51.986;5.696;2023-04-03T02:44:25;6.2;61.5
78455;SHT31;67751;51.986;5.696;2023-04-03T02:46:57;6.2;61.4
78455;SHT31;67751;51.986;5.696;2023-04-03T02:49:26;6.1;61.9
78455;SHT31;67751;51.986;5.696;2023-04-03T02:51:56;6.1;61.4
78455;SHT31;67751;51.986;5.696;2023-04-03T02:54:26;6.1;61.4
78455;SHT31;67751;51.986;5.696;2023-04-03T02:56:58;6.1;61.2
78455;SHT31;67751;51.986;5.696;2023-04-03T02:59:28;6.1;61.4
78455;SHT31;67751;51.986;5.696;2023-04-03T03:01:58;6.1;61.5
78455;SHT31;67751;51.986;5.696;2023-04-03T03:04:27;6.1;61.7
78455;SHT31;67751;51.986;5.696;2023-04-03T03:06:57;6.1;61.8
78455;SHT31;67751;51.986;5.696;2023-04-03T03:09:27;6.1;61.6
78455;SHT31;67751;51.986;5.696;2023-04-03T03:11:57;6.0;61.2
78455;SHT31;67751;51.986;5.696;2023-04-03T03:14:28;6.0;61.3
78455;SHT31;67751;51.986;5.696;2023-04-03T03:16:58;6.0;62.0
78455;SHT31;67751;51.986;5.696;2023-04-03T03:19:27;6.0;61.9
78455;SHT31;67751;51.986;5.696;2023-04-03T03:21:57;6.0;62.0
78455;SHT31;67751;51.986;5.696;2023-04-03T03:24:27;6.0;61.7
78455;SHT31;67751;51.986;5.696;2023-04-03T03:26:57;6.0;61.7
78455;SHT31;67751;51.986;5.696;2023-04-03T03:29:27;5.9;62.5
78455;SHT31;67751;51.986;5.696;2023-04-03T03:31:57;5.9;61.9
78455;SHT31;67751;51.986;5.696;2023-04-03T03:34:26;5.9;61.6
78455;SHT31;67751;51.986;5.696;2023-04-03T03:36:56;5.9;62.0
78455;SHT31;67751;51.986;5.696;2023-04-03T03:39:25;5.9;62.4
78455;SHT31;67751;51.986;5.696;2023-04-03T03:41:55;5.9;62.3
78455;SHT31;67751;51.986;5.696;2023-04-03T03:44:25;5.9;62.8
78455;SHT31;67751;51.986;5.696;2023-04-03T03:46:56;5.9;63.0
78455;SHT31;67751;51.986;5.696;2023-04-03T03:49:25;5.8;62.8
78455;SHT31;67751;51.986;5.696;2023-04-03T03:51:55;5.8;62.6
78455;SHT31;67751;51.986;5.696;2023-04-03T03:54:25;5.8;62.5
78455;SHT31;67751;51.986;5.696;2023-04-03T03:56:54;5.8;62.6
78455;SHT31;67751;51.986;5.696;2023-04-03T03:59:24;5.8;62.4
78455;SHT31;67751;51.986;5.696;2023-04-03T04:01:54;5.8;62.2
78455;SHT31;67751;51.986;5.696;2023-04-03T04:04:24;5.8;62.6
78455;SHT31;67751;51.986;5.696;2023-04-03T04:06:53;5.8;62.5
78455;SHT31;67751;51.986;5.696;2023-04-03T04:09:23;5.8;62.3
78455;SHT31;67751;51.986;5.696;2023-04-03T04:11:53;5.8;62.5
78455;SHT31;67751;51.986;5.696;2023-04-03T04:14:23;5.8;62.5
78455;SHT31;67751;51.986;5.696;2023-04-03T04:16:53;5.7;62.6
78455;SHT31;67751;51.986;5.696;2023-04-03T04:19:23;5.7;62.7
78455;SHT31;67751;51.986;5.696;2023-04-03T04:21:54;5.7;62.6
78455;SHT31;67751;51.986;5.696;2023-04-03T04:24:24;5.7;63.0
78455;SHT31;67751;51.986;5.696;2023-04-03T04:26:54;5.7;62.7
78455;SHT31;67751;51.986;5.696;2023-04-03T04:29:24;5.7;62.3
78455;SHT31;67751;51.986;5.696;2023-04-03T04:31:54;5.7;62.9
78455;SHT31;67751;51.986;5.696;2023-04-03T04:34:23;5.6;63.0
78455;SHT31;67751;51.986;5.696;2023-04-03T04:36:53;5.6;62.6
78455;SHT31;67751;51.986;5.696;2023-04-03T04:39:22;5.6;62.5
78455;SHT31;67751;51.986;5.696;2023-04-03T04:41:52;5.6;62.5
78455;SHT31;67751;51.986;5.696;2023-04-03T04:44:22;5.6;62.4
78455;SHT31;67751;51.986;5.696;2023-04-03T04:46:52;5.6;62.7
78455;SHT31;67751;51.986;5.696;2023-04-03T04:49:22;5.5;62.8
78455;SHT31;67751;51.986;5.696;2023-04-03T04:51:51;5.5;62.3
78455;SHT31;67751;51.986;5.696;2023-04-03T04:54:23;5.5;62.6
78455;SHT31;67751;51.986;5.696;2023-04-03T04:56:52;5.5;63.4
78455;SHT31;67751;51.986;5.696;2023-04-03T04:59:22;5.4;63.2
78455;SHT31;67751;51.986;5.696;2023-04-03T05:01:52;5.4;63.2
78455;SHT31;67751;51.986;5.696;2023-04-03T05:04:22;5.4;63.1
78455;SHT31;67751;51.986;5.696;2023-04-03T05:06:51;5.4;62.9
78455;SHT31;67751;51.986;5.696;2023-04-03T05:09:21;5.3;63.2
78455;SHT31;67751;51.986;5.696;2023-04-03T05:11:51;5.3;63.4
78455;SHT31;67751;51.986;5.696;2023-04-03T05:14:21;5.3;63.8
78455;SHT31;67751;51.986;5.696;2023-04-03T05:16:50;5.3;63.5
78455;SHT31;67751;51.986;5.696;2023-04-03T05:19:21;5.3;63.4
78455;SHT31;67751;51.986;5.696;2023-04-03T05:21:53;5.3;63.6
78455;SHT31;67751;51.986;5.696;2023-04-03T05:24:22;5.2;63.5
78455;SHT31;67751;51.986;5.696;2023-04-03T05:26:53;5.2;63.6
78455;SHT31;67751;51.986;5.696;2023-04-03T05:29:23;5.2;64.0
78455;SHT31;67751;51.986;5.696;2023-04-03T05:31:52;5.2;63.8
78455;SHT31;67751;51.986;5.696;2023-04-03T05:34:22;5.2;63.9
78455;SHT31;67751;51.986;5.696;2023-04-03T05:36:52;5.2;63.9
78455;SHT31;67751;51.986;5.696;2023-04-03T05:39:22;5.2;63.6
78455;SHT31;67751;51.986;5.696;2023-04-03T05:41:52;5.2;63.8
78455;SHT31;67751;51.986;5.696;2023-04-03T05:44:21;5.2;64.0
78455;SHT31;67751;51.986;5.696;2023-04-03T05:46:51;5.2;63.7
78455;SHT31;67751;51.986;5.696;2023-04-03T05:49:20;5.1;64.1
78455;SHT31;67751;51.986;5.696;2023-04-03T05:51:50;5.1;64.1
78455;SHT31;67751;51.986;5.696;2023-04-03T05:54:25;5.1;64.3
78455;SHT31;67751;51.986;5.696;2023-04-03T05:56:55;5.1;64.5
78455;SHT31;67751;51.986;5.696;2023-04-03T05:59:24;5.1;64.3
78455;SHT31;67751;51.986;5.696;2023-04-03T06:01:54;5.1;64.3
78455;SHT31;67751;51.986;5.696;2023-04-03T06:04:23;5.1;64.4
78455;SHT31;67751;51.986;5.696;2023-04-03T06:06:56;5.1;64.1
78455;SHT31;67751;51.986;5.696;2023-04-03T06:09:27;5.1;64.4
78455;SHT31;67751;51.986;5.696;2023-04-03T06:11:58;5.1;64.8
78455;SHT31;67751;51.986;5.696;2023-04-03T06:14:28;5.1;64.6
78455;SHT31;67751;51.986;5.696;2023-04-03T06:16:58;5.1;64.6
78455;SHT31;67751;51.986;5.696;2023-04-03T06:19:28;5.1;64.9
78455;SHT31;67751;51.986;5.696;2023-04-03T06:22:00;5.1;65.1
78455;SHT31;67751;51.986;5.696;2023-04-03T06:24:30;5.1;64.7
78455;SHT31;67751;51.986;5.696;2023-04-03T06:27:00;5.1;65.1
78455;SHT31;67751;51.986;5.696;2023-04-03T06:29:30;5.1;64.9
78455;SHT31;67751;51.986;5.696;2023-04-03T06:32:02;5.1;65.0
78455;SHT31;67751;51.986;5.696;2023-04-03T06:34:31;5.1;65.2
78455;SHT31;67751;51.986;5.696;2023-04-03T06:37:02;5.1;64.9
78455;SHT31;67751;51.986;5.696;2023-04-03T06:39:32;5.1;64.9
78455;SHT31;67751;51.986;5.696;2023-04-03T06:42:02;5.1;65.3
78455;SHT31;67751;51.986;5.696;2023-04-03T06:44:31;5.1;64.6
78455;SHT31;67751;51.986;5.696;2023-04-03T06:47:03;5.1;65.1
78455;SHT31;67751;51.986;5.696;2023-04-03T06:49:32;5.1;64.0
78455;SHT31;67751;51.986;5.696;2023-04-03T06:52:04;5.1;64.3
78455;SHT31;67751;51.986;5.696;2023-04-03T06:54:34;5.1;64.6
78455;SHT31;67751;51.986;5.696;2023-04-03T06:57:06;5.1;65.3
78455;SHT31;67751;51.986;5.696;2023-04-03T06:59:36;5.2;64.8
78455;SHT31;67751;51.986;5.696;2023-04-03T07:02:06;5.2;65.2
78455;SHT31;67751;51.986;5.696;2023-04-03T07:04:35;5.2;64.6
78455;SHT31;67751;51.986;5.696;2023-04-03T07:07:05;5.3;64.4
78455;SHT31;67751;51.986;5.696;2023-04-03T07:09:35;5.3;64.5
78455;SHT31;67751;51.986;5.696;2023-04-03T07:12:05;5.3;65.3
78455;SHT31;67751;51.986;5.696;2023-04-03T07:14:34;5.4;64.1
78455;SHT31;67751;51.986;5.696;2023-04-03T07:17:04;5.4;64.7
78455;SHT31;67751;51.986;5.696;2023-04-03T07:19:34;5.5;64.0
78455;SHT31;67751;51.986;5.696;2023-04-03T07:22:03;5.5;64.1
78455;SHT31;67751;51.986;5.696;2023-04-03T07:24:33;5.5;64.0
78455;SHT31;67751;51.986;5.696;2023-04-03T07:27:03;5.6;62.1
78455;SHT31;67751;51.986;5.696;2023-04-03T07:29:35;5.6;62.2
78455;SHT31;67751;51.986;5.696;2023-04-03T07:32:06;5.7;62.1
78455;SHT31;67751;51.986;5.696;2023-04-03T07:34:36;5.7;61.9
78455;SHT31;67751;51.986;5.696;2023-04-03T07:37:07;5.7;61.3
78455;SHT31;67751;51.986;5.696;2023-04-03T07:39:37;5.8;61.6
78455;SHT31;67751;51.986;5.696;2023-04-03T07:42:09;5.8;62.0
78455;SHT31;67751;51.986;5.696;2023-04-03T07:44:39;5.8;59.8
78455;SHT31;67751;51.986;5.696;2023-04-03T07:47:09;5.9;59.7
78455;SHT31;67751;51.986;5.696;2023-04-03T07:49:38;5.9;60.0
78455;SHT31;67751;51.986;5.696;2023-04-03T07:52:11;5.9;58.7
78455;SHT31;67751;51.986;5.696;2023-04-03T07:54:42;6.0;60.8
78455;SHT31;67751;51.986;5.696;2023-04-03T07:57:11;6.0;60.1
78455;SHT31;67751;51.986;5.696;2023-04-03T07:59:41;6.1;57.8
78455;SHT31;67751;51.986;5.696;2023-04-03T08:02:12;6.1;59.0
78455;SHT31;67751;51.986;5.696;2023-04-03T08:04:41;6.1;57.3
78455;SHT31;67751;51.986;5.696;2023-04-03T08:07:11;6.2;55.5
78455;SHT31;67751;51.986;5.696;2023-04-03T08:09:40;6.2;56.3
78455;SHT31;67751;51.986;5.696;2023-04-03T08:12:11;6.3;54.2
78455;SHT31;67751;51.986;5.696;2023-04-03T08:14:42;6.3;54.9
78455;SHT31;67751;51.986;5.696;2023-04-03T08:17:11;6.4;53.8
78455;SHT31;67751;51.986;5.696;2023-04-03T08:19:41;6.4;54.8
78455;SHT31;67751;51.986;5.696;2023-04-03T08:22:12;6.5;55.6
78455;SHT31;67751;51.986;5.696;2023-04-03T08:24:43;6.6;52.5
78455;SHT31;67751;51.986;5.696;2023-04-03T08:27:13;6.6;51.7
78455;SHT31;67751;51.986;5.696;2023-04-03T08:29:43;6.7;52.7
78455;SHT31;67751;51.986;5.696;2023-04-03T08:32:13;6.7;50.1
78455;SHT31;67751;51.986;5.696;2023-04-03T08:34:43;6.8;50.3
78455;SHT31;67751;51.986;5.696;2023-04-03T08:37:13;6.8;50.3
78455;SHT31;67751;51.986;5.696;2023-04-03T08:39:44;6.9;51.5
78455;SHT31;67751;51.986;5.696;2023-04-03T08:42:27;6.9;49.0
78455;SHT31;67751;51.986;5.696;2023-04-03T08:45:10;7.0;50.5
78455;SHT31;67751;51.986;5.696;2023-04-03T08:47:45;7.1;47.8
78455;SHT31;67751;51.986;5.696;2023-04-03T08:50:19;7.2;47.3
78455;SHT31;67751;51.986;5.696;2023-04-03T08:52:52;7.3;46.7
78455;SHT31;67751;51.986;5.696;2023-04-03T08:55:28;7.3;44.1
78455;SHT31;67751;51.986;5.696;2023-04-03T08:58:02;7.4;45.8
78455;SHT31;67751;51.986;5.696;2023-04-03T09:00:40;7.5;44.7
78455;SHT31;67751;51.986;5.696;2023-04-03T09:03:15;7.6;45.7
78455;SHT31;67751;51.986;5.696;2023-04-03T09:05:50;7.6;45.0
78455;SHT31;67751;51.986;5.696;2023-04-03T09:08:26;7.7;43.8
78455;SHT31;67751;51.986;5.696;2023-04-03T09:11:09;7.7;41.8
78455;SHT31;67751;51.986;5.696;2023-04-03T09:13:51;7.8;42.5
78455;SHT31;67751;51.986;5.696;2023-04-03T09:16:36;7.9;43.7
78455;SHT31;67751;51.986;5.696;2023-04-03T09:19:18;8.0;39.7
78455;SHT31;67751;51.986;5.696;2023-04-03T09:21:55;8.1;39.3
78455;SHT31;67751;51.986;5.696;2023-04-03T09:24:26;8.1;40.3
78455;SHT31;67751;51.986;5.696;2023-04-03T09:27:01;8.2;36.8
78455;SHT31;67751;51.986;5.696;2023-04-03T09:29:37;8.3;40.1
78455;SHT31;67751;51.986;5.696;2023-04-03T09:32:25;8.4;37.6
78455;SHT31;67751;51.986;5.696;2023-04-03T09:34:58;8.4;36.8
78455;SHT31;67751;51.986;5.696;2023-04-03T09:37:38;8.5;37.2
78455;SHT31;67751;51.986;5.696;2023-04-03T09:40:32;8.6;36.5
78455;SHT31;67751;51.986;5.696;2023-04-03T09:43:21;8.6;38.3
78455;SHT31;67751;51.986;5.696;2023-04-03T09:45:52;8.7;36.2
78455;SHT31;67751;51.986;5.696;2023-04-03T09:48:24;8.8;38.5
78455;SHT31;67751;51.986;5.696;2023-04-03T09:50:58;8.8;35.5
78455;SHT31;67751;51.986;5.696;2023-04-03T09:53:40;8.9;37.5
78455;SHT31;67751;51.986;5.696;2023-04-03T09:56:22;9.0;34.7
78455;SHT31;67751;51.986;5.696;2023-04-03T09:59:12;9.0;35.1
78455;SHT31;67751;51.986;5.696;2023-04-03T10:02:02;9.1;33.7
78455;SHT31;67751;51.986;5.696;2023-04-03T10:04:40;9.1;34.9
78455;SHT31;67751;51.986;5.696;2023-04-03T10:07:34;9.1;34.5
78455;SHT31;67751;51.986;5.696;2023-04-03T10:10:21;9.2;35.2
78455;SHT31;67751;51.986;5.696;2023-04-03T10:13:06;9.2;34.2
78455;SHT31;67751;51.986;5.696;2023-04-03T10:15:42;9.3;35.0
78455;SHT31;67751;51.986;5.696;2023-04-03T10:18:29;9.3;33.0
78455;SHT31;67751;51.986;5.696;2023-04-03T10:21:06;9.4;34.4
78455;SHT31;67751;51.986;5.696;2023-04-03T10:23:47;9.4;35.8
78455;SHT31;67751;51.986;5.696;2023-04-03T10:26:29;9.5;32.4
78455;SHT31;67751;51.986;5.696;2023-04-03T10:29:13;9.5;30.4
78455;SHT31;67751;51.986;5.696;2023-04-03T10:31:50;9.5;33.2
78455;SHT31;67751;51.986;5.696;2023-04-03T10:34:25;9.6;32.7
78455;SHT31;67751;51.986;5.696;2023-04-03T10:37:10;9.6;33.5
78455;SHT31;67751;51.986;5.696;2023-04-03T10:39:50;9.6;34.2
78455;SHT31;67751;51.986;5.696;2023-04-03T10:42:26;9.7;35.1
78455;SHT31;67751;51.986;5.696;2023-04-03T10:45:10;9.7;37.0
78455;SHT31;67751;51.986;5.696;2023-04-03T10:47:51;9.8;36.2
78455;SHT31;67751;51.986;5.696;2023-04-03T10:50:35;9.8;38.4
78455;SHT31;67751;51.986;5.696;2023-04-03T10:53:13;9.9;35.6
78455;SHT31;67751;51.986;5.696;2023-04-03T10:55:51;9.9;36.0
78455;SHT31;67751;51.986;5.696;2023-04-03T10:58:34;10.0;36.2
78455;SHT31;67751;51.986;5.696;2023-04-03T11:01:08;10.0;36.9
78455;SHT31;67751;51.986;5.696;2023-04-03T11:03:43;10.1;35.1
78455;SHT31;67751;51.986;5.696;2023-04-03T11:06:16;10.1;35.1
78455;SHT31;67751;51.986;5.696;2023-04-03T11:08:52;10.2;34.7
78455;SHT31;67751;51.986;5.696;2023-04-03T11:11:26;10.2;35.2
78455;SHT31;67751;51.986;5.696;2023-04-03T11:14:01;10.3;34.0
78455;SHT31;67751;51.986;5.696;2023-04-03T11:16:42;10.3;35.3
78455;SHT31;67751;51.986;5.696;2023-04-03T11:19:21;10.3;34.7
78455;SHT31;67751;51.986;5.696;2023-04-03T11:22:00;10.3;35.5
78455;SHT31;67751;51.986;5.696;2023-04-03T11:24:33;10.3;36.2
78455;SHT31;67751;51.986;5.696;2023-04-03T11:27:15;10.4;39.1
78455;SHT31;67751;51.986;5.696;2023-04-03T11:29:50;10.4;36.6
78455;SHT31;67751;51.986;5.696;2023-04-03T11:32:39;10.4;35.2
78455;SHT31;67751;51.986;5.696;2023-04-03T11:35:12;10.5;35.0
78455;SHT31;67751;51.986;5.696;2023-04-03T11:37:46;10.5;34.6
78455;SHT31;67751;51.986;5.696;2023-04-03T11:40:25;10.5;33.2
78455;SHT31;67751;51.986;5.696;2023-04-03T11:43:05;10.6;35.1
78455;SHT31;67751;51.986;5.696;2023-04-03T11:45:54;10.6;35.9
78455;SHT31;67751;51.986;5.696;2023-04-03T11:48:50;10.6;35.0
78455;SHT31;67751;51.986;5.696;2023-04-03T11:53:38;10.6;35.7
78455;SHT31;67751;51.986;5.696;2023-04-03T11:56:30;10.6;38.1
78455;SHT31;67751;51.986;5.696;2023-04-03T11:59:24;10.7;35.6
78455;SHT31;67751;51.986;5.696;2023-04-03T12:01:56;10.8;34.4
78455;SHT31;67751;51.986;5.696;2023-04-03T12:04:27;10.8;35.5
78455;SHT31;67751;51.986;5.696;2023-04-03T12:07:20;10.8;36.1
78455;SHT31;67751;51.986;5.696;2023-04-03T12:09:59;10.9;32.5
78455;SHT31;67751;51.986;5.696;2023-04-03T12:12:33;10.9;34.7
78455;SHT31;67751;51.986;5.696;2023-04-03T12:15:23;10.9;32.8
78455;SHT31;67751;51.986;5.696;2023-04-03T12:17:53;10.9;33.5
78455;SHT31;67751;51.986;5.696;2023-04-03T12:20:54;10.9;35.6
78455;SHT31;67751;51.986;5.696;2023-04-03T12:23:29;11.0;33.9
78455;SHT31;67751;51.986;5.696;2023-04-03T12:26:05;11.0;35.3
78455;SHT31;67751;51.986;5.696;2023-04-03T12:28:40;11.0;34.2
78455;SHT31;67751;51.986;5.696;2023-04-03T12:31:11;11.1;35.4
78455;SHT31;67751;51.986;5.696;2023-04-03T12:33:59;11.1;34.0
78455;SHT31;67751;51.986;5.696;2023-04-03T12:36:41;11.1;36.4
78455;SHT31;67751;51.986;5.696;2023-04-03T12:39:35;11.1;36.5
78455;SHT31;67751;51.986;5.696;2023-04-03T12:42:29;11.2;33.0
78455;SHT31;67751;51.986;5.696;2023-04-03T12:45:13;11.2;35.9
78455;SHT31;67751;51.986;5.696;2023-04-03T12:47:45;11.2;36.4
78455;SHT31;67751;51.986;5.696;2023-04-03T12:50:24;11.2;35.5
78455;SHT31;67751;51.986;5.696;2023-04-03T12:53:02;11.2;34.8
78455;SHT31;67751;51.986;5.696;2023-04-03T12:55:33;11.3;35.2
78455;SHT31;67751;51.986;5.696;2023-04-03T12:58:15;11.3;34.7
78455;SHT31;67751;51.986;5.696;2023-04-03T13:00:46;11.3;37.2
78455;SHT31;67751;51.986;5.696;2023-04-03T13:03:25;11.3;35.3
78455;SHT31;67751;51.986;5.696;2023-04-03T13:05:59;11.2;34.0
78455;SHT31;67751;51.986;5.696;2023-04-03T13:08:31;11.2;34.1
78455;SHT31;67751;51.986;5.696;2023-04-03T13:11:03;11.2;35.2
78455;SHT31;67751;51.986;5.696;2023-04-03T13:13:35;11.2;36.2
78455;SHT31;67751;51.986;5.696;2023-04-03T13:16:10;11.2;35.4
78455;SHT31;67751;51.986;5.696;2023-04-03T13:18:41;11.2;33.6
78455;SHT31;67751;51.986;5.696;2023-04-03T13:21:16;11.2;34.7
78455;SHT31;67751;51.986;5.696;2023-04-03T13:23:49;11.2;32.8
78455;SHT31;67751;51.986;5.696;2023-04-03T13:26:22;11.1;32.7
78455;SHT31;67751;51.986;5.696;2023-04-03T13:28:55;11.1;34.7
78455;SHT31;67751;51.986;5.696;2023-04-03T13:31:30;11.1;35.5
78455;SHT31;67751;51.986;5.696;2023-04-03T13:34:06;11.1;35.0
78455;SHT31;67751;51.986;5.696;2023-04-03T13:36:38;11.1;37.7
78455;SHT31;67751;51.986;5.696;2023-04-03T13:39:22;11.1;34.5
78455;SHT31;67751;51.986;5.696;2023-04-03T13:41:54;11.2;35.9
78455;SHT31;67751;51.986;5.696;2023-04-03T13:44:33;11.2;36.0
78455;SHT31;67751;51.986;5.696;2023-04-03T13:47:17;11.2;36.2
78455;SHT31;67751;51.986;5.696;2023-04-03T13:50:01;11.2;36.7
78455;SHT31;67751;51.986;5.696;2023-04-03T13:52:39;11.2;35.8
78455;SHT31;67751;51.986;5.696;2023-04-03T13:55:17;11.2;36.6
78455;SHT31;67751;51.986;5.696;2023-04-03T13:57:52;11.3;35.4
78455;SHT31;67751;51.986;5.696;2023-04-03T14:00:37;11.3;34.7
78455;SHT31;67751;51.986;5.696;2023-04-03T14:03:19;11.3;37.6
78455;SHT31;67751;51.986;5.696;2023-04-03T14:05:50;11.3;35.7
78455;SHT31;67751;51.986;5.696;2023-04-03T14:08:20;11.3;34.5
78455;SHT31;67751;51.986;5.696;2023-04-03T14:10:53;11.3;33.4
78455;SHT31;67751;51.986;5.696;2023-04-03T14:13:23;11.3;37.3
78455;SHT31;67751;51.986;5.696;2023-04-03T14:15:53;11.3;35.9
78455;SHT31;67751;51.986;5.696;2023-04-03T14:18:23;11.3;37.2
78455;SHT31;67751;51.986;5.696;2023-04-03T14:20:52;11.3;36.6
78455;SHT31;67751;51.986;5.696;2023-04-03T14:23:22;11.3;38.3
78455;SHT31;67751;51.986;5.696;2023-04-03T14:25:52;11.3;38.4
78455;SHT31;67751;51.986;5.696;2023-04-03T14:28:22;11.3;35.8
78455;SHT31;67751;51.986;5.696;2023-04-03T14:30:53;11.3;34.5
78455;SHT31;67751;51.986;5.696;2023-04-03T14:33:23;11.3;34.6
78455;SHT31;67751;51.986;5.696;2023-04-03T14:35:54;11.3;35.7
78455;SHT31;67751;51.986;5.696;2023-04-03T14:38:28;11.4;38.3
78455;SHT31;67751;51.986;5.696;2023-04-03T14:40:58;11.4;36.0
78455;SHT31;67751;51.986;5.696;2023-04-03T14:43:28;11.4;38.8
78455;SHT31;67751;51.986;5.696;2023-04-03T14:45:57;11.4;37.8
78455;SHT31;67751;51.986;5.696;2023-04-03T14:48:29;11.4;36.3
78455;SHT31;67751;51.986;5.696;2023-04-03T14:50:59;11.3;36.6
78455;SHT31;67751;51.986;5.696;2023-04-03T14:53:29;11.3;36.9
78455;SHT31;67751;51.986;5.696;2023-04-03T14:56:00;11.3;35.2
78455;SHT31;67751;51.986;5.696;2023-04-03T14:58:29;11.3;36.3
78455;SHT31;67751;51.986;5.696;2023-04-03T15:00:59;11.3;35.9
78455;SHT31;67751;51.986;5.696;2023-04-03T15:03:29;11.2;36.3
78455;SHT31;67751;51.986;5.696;2023-04-03T15:05:59;11.2;37.9
78455;SHT31;67751;51.986;5.696;2023-04-03T15:08:29;11.2;37.6
78455;SHT31;67751;51.986;5.696;2023-04-03T15:10:59;11.2;38.2
78455;SHT31;67751;51.986;5.696;2023-04-03T15:13:29;11.2;37.9
78455;SHT31;67751;51.986;5.696;2023-04-03T15:15:59;11.2;36.1
78455;SHT31;67751;51.986;5.696;2023-04-03T15:18:35;11.2;37.0
78455;SHT31;67751;51.986;5.696;2023-04-03T15:21:08;11.2;38.7
78455;SHT31;67751;51.986;5.696;2023-04-03T15:23:38;11.2;38.8
78455;SHT31;67751;51.986;5.696;2023-04-03T15:26:09;11.2;38.4
78455;SHT31;67751;51.986;5.696;2023-04-03T15:28:42;11.2;37.8
78455;SHT31;67751;51.986;5.696;2023-04-03T15:31:13;11.2;36.7
78455;SHT31;67751;51.986;5.696;2023-04-03T15:33:42;11.1;37.0
78455;SHT31;67751;51.986;5.696;2023-04-03T15:36:12;11.1;37.4
78455;SHT31;67751;51.986;5.696;2023-04-03T15:38:41;11.0;38.2
78455;SHT31;67751;51.986;5.696;2023-04-03T15:41:12;11.0;37.2
78455;SHT31;67751;51.986;5.696;2023-04-03T15:43:42;11.0;38.1
78455;SHT31;67751;51.986;5.696;2023-04-03T15:46:13;11.0;38.7
78455;SHT31;67751;51.986;5.696;2023-04-03T15:48:42;11.0;39.0
78455;SHT31;67751;51.986;5.696;2023-04-03T15:51:13;10.9;39.7
78455;SHT31;67751;51.986;5.696;2023-04-03T15:53:42;10.9;38.2
78455;SHT31;67751;51.986;5.696;2023-04-03T15:56:12;10.9;38.8
78455;SHT31;67751;51.986;5.696;2023-04-03T15:58:42;10.9;40.0
78455;SHT31;67751;51.986;5.696;2023-04-03T16:01:12;10.9;38.9
78455;SHT31;67751;51.986;5.696;2023-04-03T16:03:42;10.9;38.2
78455;SHT31;67751;51.986;5.696;2023-04-03T16:06:14;10.9;36.3
78455;SHT31;67751;51.986;5.696;2023-04-03T16:08:46;10.8;37.4
78455;SHT31;67751;51.986;5.696;2023-04-03T16:11:17;10.8;38.9
78455;SHT31;67751;51.986;5.696;2023-04-03T16:13:46;10.8;38.6
78455;SHT31;67751;51.986;5.696;2023-04-03T16:16:16;10.7;39.5
78455;SHT31;67751;51.986;5.696;2023-04-03T16:18:47;10.7;40.6
78455;SHT31;67751;51.986;5.696;2023-04-03T16:21:17;10.7;40.9
78455;SHT31;67751;51.986;5.696;2023-04-03T16:23:49;10.7;40.0
78455;SHT31;67751;51.986;5.696;2023-04-03T16:26:20;10.7;40.8
78455;SHT31;67751;51.986;5.696;2023-04-03T16:28:49;10.7;39.0
78455;SHT31;67751;51.986;5.696;2023-04-03T16:31:19;10.7;39.7
78455;SHT31;67751;51.986;5.696;2023-04-03T16:33:49;10.7;37.9
78455;SHT31;67751;51.986;5.696;2023-04-03T16:36:19;10.7;38.2
78455;SHT31;67751;51.986;5.696;2023-04-03T16:38:48;10.6;39.2
78455;SHT31;67751;51.986;5.696;2023-04-03T16:41:18;10.6;38.9
78455;SHT31;67751;51.986;5.696;2023-04-03T16:43:47;10.6;40.3
78455;SHT31;67751;51.986;5.696;2023-04-03T16:46:18;10.6;40.7
78455;SHT31;67751;51.986;5.696;2023-04-03T16:48:47;10.6;40.4
78455;SHT31;67751;51.986;5.696;2023-04-03T16:51:17;10.5;41.1
78455;SHT31;67751;51.986;5.696;2023-04-03T16:53:47;10.5;41.2
78455;SHT31;67751;51.986;5.696;2023-04-03T16:56:16;10.5;40.9